sensor_id;sensor_type;location;lat;lon;timestamp;pressure;altitude;pressure_sealevel;temperature;humidity
50123;BME280;36021;48.670;6.184;2023-02-19T00:00:58;99819.94;;;9.61;100.00
50123;BME280;36021;48.670;6.184;2023-02-19T00:03:25;99818.00;;;9.62;100.00
50123;BME280;36021;48.670;6.184;2023-02-19T00:05:50;99823.22;;;9.58;100.00
50123;BME280;36021;48.670;6.184;2023-02-19T00:08:16;99818.50;;;9.49;100.00
50123;BME280;36021;48.670;6.184;2023-02-19T00:10:41;99820.19;;;9.55;100.00
50123;BME280;36021;48.670;6.184;2023-02-19T00:13:07;99830.06;;;9.51;100.00
50123;BME280;36021;48.670;6.184;2023-02-19T00:15:33;99825.09;;;9.53;100.00
50123;BME280;36021;48.670;6.184;2023-02-19T00:17:58;99826.78;;;9.54;100.00
50123;BME280;36021;48.670;6.184;2023-02-19T00:20:24;99839.19;;;9.66;100.00
50123;BME280;36021;48.670;6.184;2023-02-19T00:22:49;99833.94;;;9.55;100.00
50123;BME280;36021;48.670;6.184;2023-02-19T00:25:15;99836.16;;;9.58;100.00
50123;BME280;36021;48.670;6.184;2023-02-19T00:27:41;99851.25;;;9.50;100.00
50123;BME280;36021;48.670;6.184;2023-02-19T00:30:07;99845.44;;;9.47;100.00
50123;BME280;36021;48.670;6.184;2023-02-19T00:32:34;99835.31;;;9.57;100.00
50123;BME280;36021;48.670;6.184;2023-02-19T00:35:01;99836.34;;;9.46;100.00
50123;BME280;36021;48.670;6.184;2023-02-19T00:37:26;99825.63;;;9.50;100.00
50123;BME280;36021;48.670;6.184;2023-02-19T00:39:52;99824.56;;;9.51;100.00
50123;BME280;36021;48.670;6.184;2023-02-19T00:42:17;99814.63;;;9.50;100.00
50123;BME280;36021;48.670;6.184;2023-02-19T00:44:43;99814.09;;;9.48;100.00
50123;BME280;36021;48.670;6.184;2023-02-19T00:47:10;99816.84;;;9.53;100.00
50123;BME280;36021;48.670;6.184;2023-02-19T00:49:37;99817.97;;;9.52;100.00
50123;BME280;36021;48.670;6.184;2023-02-19T00:52:03;99822.38;;;9.58;100.00
50123;BME280;36021;48.670;6.184;2023-02-19T00:54:29;99815.22;;;9.57;100.00
50123;BME280;36021;48.670;6.184;2023-02-19T00:56:58;99833.13;;;9.59;100.00
50123;BME280;36021;48.670;6.184;2023-02-19T00:59:23;99832.56;;;9.57;100.00
50123;BME280;36021;48.670;6.184;2023-02-19T01:01:50;99835.00;;;9.49;100.00
50123;BME280;36021;48.670;6.184;2023-02-19T01:04:16;99843.81;;;9.51;100.00
50123;BME280;36021;48.670;6.184;2023-02-19T01:06:42;99833.63;;;9.51;100.00
50123;BME280;36021;48.670;6.184;2023-02-19T01:09:08;99839.97;;;9.52;100.00
50123;BME280;36021;48.670;6.184;2023-02-19T01:11:33;99840.22;;;9.45;100.00
50123;BME280;36021;48.670;6.184;2023-02-19T01:14:00;99837.22;;;9.52;100.00
50123;BME280;36021;48.670;6.184;2023-02-19T01:16:26;99851.47;;;9.43;100.00
50123;BME280;36021;48.670;6.184;2023-02-19T01:18:52;99869.66;;;9.45;100.00
50123;BME280;36021;48.670;6.184;2023-02-19T01:21:22;99874.91;;;9.51;100.00
50123;BME280;36021;48.670;6.184;2023-02-19T01:23:48;99887.53;;;9.47;100.00
50123;BME280;36021;48.670;6.184;2023-02-19T01:26:15;99888.94;;;9.50;100.00
50123;BME280;36021;48.670;6.184;2023-02-19T01:28:41;99892.50;;;9.45;100.00
50123;BME280;36021;48.670;6.184;2023-02-19T01:31:08;99880.06;;;9.42;100.00
50123;BME280;36021;48.670;6.184;2023-02-19T01:33:36;99888.25;;;9.27;100.00
50123;BME280;36021;48.670;6.184;2023-02-19T01:36:04;99889.31;;;9.26;100.00
50123;BME280;36021;48.670;6.184;2023-02-19T01:38:31;99873.94;;;9.25;100.00
50123;BME280;36021;48.670;6.184;2023-02-19T01:41:01;99888.22;;;9.22;100.00
50123;BME280;36021;48.670;6.184;2023-02-19T01:43:27;99878.59;;;9.25;100.00
50123;BME280;36021;48.670;6.184;2023-02-19T01:45:53;99874.94;;;9.14;100.00
50123;BME280;36021;48.670;6.184;2023-02-19T01:48:29;99857.59;;;9.09;100.00
50123;BME280;36021;48.670;6.184;2023-02-19T01:51:06;99858.06;;;8.96;100.00
50123;BME280;36021;48.670;6.184;2023-02-19T01:53:34;99856.63;;;8.88;100.00
50123;BME280;36021;48.670;6.184;2023-02-19T01:56:01;99865.41;;;8.90;100.00
50123;BME280;36021;48.670;6.184;2023-02-19T01:58:30;99864.91;;;8.93;100.00
50123;BME280;36021;48.670;6.184;2023-02-19T02:00:56;99868.22;;;8.95;100.00
50123;BME280;36021;48.670;6.184;2023-02-19T02:03:22;99886.31;;;8.91;100.00
50123;BME280;36021;48.670;6.184;2023-02-19T02:08:18;99850.88;;;8.95;100.00
50123;BME280;36021;48.670;6.184;2023-02-19T02:11:02;99839.19;;;9.09;100.00
50123;BME280;36021;48.670;6.184;2023-02-19T02:13:31;99830.88;;;8.99;100.00
50123;BME280;36021;48.670;6.184;2023-02-19T02:18:58;99815.69;;;8.92;100.00
50123;BME280;36021;48.670;6.184;2023-02-19T02:21:28;99821.38;;;8.80;100.00
50123;BME280;36021;48.670;6.184;2023-02-19T02:31:44;99849.44;;;8.87;100.00
50123;BME280;36021;48.670;6.184;2023-02-19T02:34:17;99847.22;;;8.84;100.00
50123;BME280;36021;48.670;6.184;2023-02-19T02:36:44;99842.88;;;8.88;100.00
50123;BME280;36021;48.670;6.184;2023-02-19T02:39:14;99850.59;;;8.91;100.00
50123;BME280;36021;48.670;6.184;2023-02-19T02:41:42;99835.16;;;8.85;100.00
50123;BME280;36021;48.670;6.184;2023-02-19T02:44:09;99841.50;;;8.85;100.00
50123;BME280;36021;48.670;6.184;2023-02-19T02:46:34;99834.06;;;8.86;100.00
50123;BME280;36021;48.670;6.184;2023-02-19T02:49:08;99837.88;;;8.80;100.00
50123;BME280;36021;48.670;6.184;2023-02-19T02:51:37;99825.22;;;8.79;100.00
50123;BME280;36021;48.670;6.184;2023-02-19T02:57:16;99837.28;;;8.73;100.00
50123;BME280;36021;48.670;6.184;2023-02-19T02:59:47;99832.63;;;8.78;100.00
50123;BME280;36021;48.670;6.184;2023-02-19T03:02:25;99827.38;;;8.77;100.00
50123;BME280;36021;48.670;6.184;2023-02-19T03:07:46;99840.25;;;8.71;100.00
50123;BME280;36021;48.670;6.184;2023-02-19T03:10:16;99846.63;;;8.77;100.00
50123;BME280;36021;48.670;6.184;2023-02-19T03:12:43;99842.25;;;8.76;100.00
50123;BME280;36021;48.670;6.184;2023-02-19T03:15:30;99843.28;;;8.70;100.00
50123;BME280;36021;48.670;6.184;2023-02-19T03:18:26;99855.91;;;8.71;100.00
50123;BME280;36021;48.670;6.184;2023-02-19T03:21:13;99846.69;;;8.82;100.00
50123;BME280;36021;48.670;6.184;2023-02-19T03:23:40;99851.00;;;8.73;100.00
50123;BME280;36021;48.670;6.184;2023-02-19T03:26:25;99848.28;;;8.78;100.00
50123;BME280;36021;48.670;6.184;2023-02-19T03:28:52;99846.16;;;8.85;100.00
50123;BME280;36021;48.670;6.184;2023-02-19T03:31:40;99844.72;;;8.77;100.00
50123;BME280;36021;48.670;6.184;2023-02-19T03:34:10;99843.88;;;8.77;100.00
50123;BME280;36021;48.670;6.184;2023-02-19T03:36:39;99839.00;;;8.84;100.00
50123;BME280;36021;48.670;6.184;2023-02-19T03:39:07;99833.72;;;8.77;100.00
50123;BME280;36021;48.670;6.184;2023-02-19T03:48:58;99824.69;;;8.82;100.00
50123;BME280;36021;48.670;6.184;2023-02-19T03:51:33;99833.72;;;8.77;100.00
50123;BME280;36021;48.670;6.184;2023-02-19T03:56:51;99820.25;;;8.76;100.00
50123;BME280;36021;48.670;6.184;2023-02-19T03:59:55;99825.22;;;8.79;100.00
50123;BME280;36021;48.670;6.184;2023-02-19T04:02:18;99831.28;;;8.81;100.00
50123;BME280;36021;48.670;6.184;2023-02-19T04:04:53;99837.91;;;8.85;100.00
50123;BME280;36021;48.670;6.184;2023-02-19T04:07:22;99832.97;;;8.87;100.00
50123;BME280;36021;48.670;6.184;2023-02-19T04:09:49;99816.16;;;8.83;100.00
50123;BME280;36021;48.670;6.184;2023-02-19T04:12:17;99826.31;;;8.78;100.00
50123;BME280;36021;48.670;6.184;2023-02-19T04:14:49;99823.03;;;8.81;100.00
50123;BME280;36021;48.670;6.184;2023-02-19T04:17:19;99823.31;;;8.79;100.00
50123;BME280;36021;48.670;6.184;2023-02-19T04:19:46;99835.16;;;8.85;100.00
50123;BME280;36021;48.670;6.184;2023-02-19T04:22:13;99828.81;;;8.84;100.00
50123;BME280;36021;48.670;6.184;2023-02-19T04:24:41;99829.69;;;8.90;100.00
50123;BME280;36021;48.670;6.184;2023-02-19T04:27:07;99832.16;;;8.86;100.00
50123;BME280;36021;48.670;6.184;2023-02-19T04:29:33;99845.41;;;8.95;100.00
50123;BME280;36021;48.670;6.184;2023-02-19T04:31:58;99859.38;;;8.88;100.00
50123;BME280;36021;48.670;6.184;2023-02-19T04:34:25;99852.25;;;8.92;100.00
50123;BME280;36021;48.670;6.184;2023-02-19T04:36:51;99851.66;;;8.85;100.00
50123;BME280;36021;48.670;6.184;2023-02-19T04:39:16;99864.84;;;8.83;100.00
50123;BME280;36021;48.670;6.184;2023-02-19T04:41:42;99865.94;;;8.87;100.00
50123;BME280;36021;48.670;6.184;2023-02-19T04:44:07;99863.78;;;8.89;100.00
50123;BME280;36021;48.670;6.184;2023-02-19T04:46:33;99871.53;;;8.97;100.00
50123;BME280;36021;48.670;6.184;2023-02-19T04:48:58;99874.31;;;9.02;100.00
50123;BME280;36021;48.670;6.184;2023-02-19T04:51:24;99882.28;;;9.04;100.00
50123;BME280;36021;48.670;6.184;2023-02-19T04:53:50;99874.66;;;9.11;100.00
50123;BME280;36021;48.670;6.184;2023-02-19T04:56:18;99876.00;;;9.08;100.00
50123;BME280;36021;48.670;6.184;2023-02-19T04:58:44;99869.34;;;8.99;100.00
50123;BME280;36021;48.670;6.184;2023-02-19T05:01:10;99866.63;;;9.04;100.00
50123;BME280;36021;48.670;6.184;2023-02-19T05:03:36;99875.94;;;8.98;100.00
50123;BME280;36021;48.670;6.184;2023-02-19T05:06:03;99870.75;;;9.02;100.00
50123;BME280;36021;48.670;6.184;2023-02-19T05:08:29;99881.75;;;9.07;100.00
50123;BME280;36021;48.670;6.184;2023-02-19T05:11:02;99874.56;;;8.96;100.00
50123;BME280;36021;48.670;6.184;2023-02-19T05:13:28;99871.53;;;8.97;100.00
50123;BME280;36021;48.670;6.184;2023-02-19T05:15:57;99875.38;;;8.96;100.00
50123;BME280;36021;48.670;6.184;2023-02-19T05:18:23;99875.47;;;9.06;100.00
50123;BME280;36021;48.670;6.184;2023-02-19T05:20:49;99879.78;;;8.97;100.00
50123;BME280;36021;48.670;6.184;2023-02-19T05:23:15;99880.88;;;8.96;100.00
50123;BME280;36021;48.670;6.184;2023-02-19T05:25:40;99886.63;;;8.95;100.00
50123;BME280;36021;48.670;6.184;2023-02-19T05:28:06;99882.06;;;9.10;100.00
50123;BME280;36021;48.670;6.184;2023-02-19T05:30:48;99893.06;;;9.10;100.00
50123;BME280;36021;48.670;6.184;2023-02-19T05:33:14;99882.03;;;9.05;100.00
50123;BME280;36021;48.670;6.184;2023-02-19T05:35:48;99880.69;;;9.08;100.00
50123;BME280;36021;48.670;6.184;2023-02-19T05:38:14;99878.75;;;9.08;100.00
50123;BME280;36021;48.670;6.184;2023-02-19T05:40:40;99886.22;;;9.13;100.00
50123;BME280;36021;48.670;6.184;2023-02-19T05:43:05;99882.59;;;9.07;100.00
50123;BME280;36021;48.670;6.184;2023-02-19T05:45:31;99881.53;;;9.13;100.00
50123;BME280;36021;48.670;6.184;2023-02-19T05:47:57;99877.44;;;9.16;100.00
50123;BME280;36021;48.670;6.184;2023-02-19T05:50:22;99890.16;;;9.22;100.00
50123;BME280;36021;48.670;6.184;2023-02-19T05:52:48;99890.66;;;9.19;100.00
50123;BME280;36021;48.670;6.184;2023-02-19T05:55:14;99886.03;;;9.24;100.00
50123;BME280;36021;48.670;6.184;2023-02-19T05:57:40;99901.13;;;9.22;100.00
50123;BME280;36021;48.670;6.184;2023-02-19T06:00:07;99899.78;;;9.24;100.00
50123;BME280;36021;48.670;6.184;2023-02-19T06:02:37;99898.69;;;9.25;100.00
50123;BME280;36021;48.670;6.184;2023-02-19T06:05:03;99901.47;;;9.30;100.00
50123;BME280;36021;48.670;6.184;2023-02-19T06:07:29;99899.81;;;9.29;100.00
50123;BME280;36021;48.670;6.184;2023-02-19T06:09:55;99904.97;;;9.21;100.00
50123;BME280;36021;48.670;6.184;2023-02-19T06:12:20;99902.28;;;9.26;100.00
50123;BME280;36021;48.670;6.184;2023-02-19T06:14:46;99909.41;;;9.27;100.00
50123;BME280;36021;48.670;6.184;2023-02-19T06:17:12;99910.81;;;9.29;100.00
50123;BME280;36021;48.670;6.184;2023-02-19T06:19:37;99915.16;;;9.20;100.00
50123;BME280;36021;48.670;6.184;2023-02-19T06:22:03;99916.81;;;9.21;100.00
50123;BME280;36021;48.670;6.184;2023-02-19T06:24:28;99926.75;;;9.27;100.00
50123;BME280;36021;48.670;6.184;2023-02-19T06:26:54;99925.84;;;9.17;100.00
50123;BME280;36021;48.670;6.184;2023-02-19T06:29:20;99937.81;;;9.32;100.00
50123;BME280;36021;48.670;6.184;2023-02-19T06:31:45;99933.63;;;9.30;100.00
50123;BME280;36021;48.670;6.184;2023-02-19T06:34:12;99938.28;;;9.24;100.00
50123;BME280;36021;48.670;6.184;2023-02-19T06:36:38;99949.91;;;9.31;100.00
50123;BME280;36021;48.670;6.184;2023-02-19T06:39:04;99955.34;;;9.26;100.00
50123;BME280;36021;48.670;6.184;2023-02-19T06:41:30;99959.69;;;9.17;100.00
50123;BME280;36021;48.670;6.184;2023-02-19T06:43:56;99963.50;;;9.16;100.00
50123;BME280;36021;48.670;6.184;2023-02-19T06:46:21;99963.78;;;9.15;100.00
50123;BME280;36021;48.670;6.184;2023-02-19T06:48:47;99960.75;;;9.16;100.00
50123;BME280;36021;48.670;6.184;2023-02-19T06:51:17;99966.00;;;9.18;100.00
50123;BME280;36021;48.670;6.184;2023-02-19T06:53:43;99966.00;;;9.18;100.00
50123;BME280;36021;48.670;6.184;2023-02-19T06:56:23;99965.75;;;9.19;100.00
50123;BME280;36021;48.670;6.184;2023-02-19T06:58:51;99972.78;;;9.05;100.00
50123;BME280;36021;48.670;6.184;2023-02-19T07:01:16;99977.75;;;9.08;100.00
50123;BME280;36021;48.670;6.184;2023-02-19T07:03:42;99992.91;;;9.11;100.00
50123;BME280;36021;48.670;6.184;2023-02-19T07:06:10;99981.66;;;9.12;100.00
50123;BME280;36021;48.670;6.184;2023-02-19T07:08:36;99987.16;;;9.12;100.00
50123;BME280;36021;48.670;6.184;2023-02-19T07:11:01;99987.69;;;9.14;100.00
50123;BME280;36021;48.670;6.184;2023-02-19T07:13:27;99986.25;;;9.07;100.00
50123;BME280;36021;48.670;6.184;2023-02-19T07:16:03;99984.91;;;9.09;100.00
50123;BME280;36021;48.670;6.184;2023-02-19T07:18:29;99988.84;;;9.18;100.00
50123;BME280;36021;48.670;6.184;2023-02-19T07:20:54;99989.69;;;9.19;100.00
50123;BME280;36021;48.670;6.184;2023-02-19T07:23:26;99994.97;;;9.25;100.00
50123;BME280;36021;48.670;6.184;2023-02-19T07:25:51;99992.97;;;9.21;100.00
50123;BME280;36021;48.670;6.184;2023-02-19T07:28:17;100005.97;;;9.25;100.00
50123;BME280;36021;48.670;6.184;2023-02-19T07:30:42;100008.75;;;9.30;100.00
50123;BME280;36021;48.670;6.184;2023-02-19T07:33:09;100007.06;;;9.29;100.00
50123;BME280;36021;48.670;6.184;2023-02-19T07:35:35;100011.50;;;9.30;100.00
50123;BME280;36021;48.670;6.184;2023-02-19T07:38:00;100013.47;;;9.35;100.00
50123;BME280;36021;48.670;6.184;2023-02-19T07:40:26;100023.34;;;9.36;100.00
50123;BME280;36021;48.670;6.184;2023-02-19T07:42:51;100021.19;;;9.38;100.00
50123;BME280;36021;48.670;6.184;2023-02-19T07:45:17;100021.75;;;9.40;100.00
50123;BME280;36021;48.670;6.184;2023-02-19T07:47:42;100027.47;;;9.33;100.00
50123;BME280;36021;48.670;6.184;2023-02-19T07:50:08;100020.38;;;9.42;100.00
50123;BME280;36021;48.670;6.184;2023-02-19T07:52:33;100025.66;;;9.49;100.00
50123;BME280;36021;48.670;6.184;2023-02-19T07:54:59;100023.13;;;9.42;100.00
50123;BME280;36021;48.670;6.184;2023-02-19T07:57:26;100026.50;;;9.50;100.00
50123;BME280;36021;48.670;6.184;2023-02-19T07:59:52;100024.06;;;9.53;100.00
50123;BME280;36021;48.670;6.184;2023-02-19T08:02:18;100019.38;;;9.49;100.00
50123;BME280;36021;48.670;6.184;2023-02-19T08:05:04;100021.63;;;9.57;100.00
50123;BME280;36021;48.670;6.184;2023-02-19T08:07:33;100016.84;;;9.42;100.00
50123;BME280;36021;48.670;6.184;2023-02-19T08:09:59;100020.75;;;9.51;100.00
50123;BME280;36021;48.670;6.184;2023-02-19T08:12:53;100025.66;;;9.49;100.00
50123;BME280;36021;48.670;6.184;2023-02-19T08:15:37;100025.50;;;9.61;100.00
50123;BME280;36021;48.670;6.184;2023-02-19T08:18:03;100023.28;;;9.58;100.00
50123;BME280;36021;48.670;6.184;2023-02-19T08:20:28;100023.00;;;9.59;100.00
50123;BME280;36021;48.670;6.184;2023-02-19T08:22:54;100028.03;;;9.67;100.00
50123;BME280;36021;48.670;6.184;2023-02-19T08:25:19;100027.50;;;9.70;100.00
50123;BME280;36021;48.670;6.184;2023-02-19T08:27:45;100022.31;;;9.79;100.00
50123;BME280;36021;48.670;6.184;2023-02-19T08:30:10;100037.69;;;9.70;100.00
50123;BME280;36021;48.670;6.184;2023-02-19T08:32:37;100031.16;;;9.81;100.00
50123;BME280;36021;48.670;6.184;2023-02-19T08:35:03;100028.47;;;9.91;100.00
50123;BME280;36021;48.670;6.184;2023-02-19T08:37:28;100039.03;;;10.04;100.00
50123;BME280;36021;48.670;6.184;2023-02-19T08:39:54;100031.41;;;10.16;100.00
50123;BME280;36021;48.670;6.184;2023-02-19T08:42:19;100034.25;;;10.36;100.00
50123;BME280;36021;48.670;6.184;2023-02-19T08:44:45;100028.50;;;10.43;100.00
50123;BME280;36021;48.670;6.184;2023-02-19T08:47:10;100019.84;;;10.19;100.00
50123;BME280;36021;48.670;6.184;2023-02-19T08:49:36;100024.53;;;10.19;100.00
50123;BME280;36021;48.670;6.184;2023-02-19T08:52:01;100019.84;;;10.19;100.00
50123;BME280;36021;48.670;6.184;2023-02-19T08:54:27;100034.34;;;10.10;100.00
50123;BME280;36021;48.670;6.184;2023-02-19T08:56:54;100033.63;;;10.19;100.00
50123;BME280;36021;48.670;6.184;2023-02-19T08:59:20;100035.88;;;10.27;100.00
50123;BME280;36021;48.670;6.184;2023-02-19T09:01:46;100033.38;;;10.26;100.00
50123;BME280;36021;48.670;6.184;2023-02-19T09:04:11;100036.44;;;10.34;100.00
50123;BME280;36021;48.670;6.184;2023-02-19T09:06:39;100028.41;;;10.28;100.00
50123;BME280;36021;48.670;6.184;2023-02-19T09:09:05;100025.94;;;10.31;100.00
50123;BME280;36021;48.670;6.184;2023-02-19T09:11:30;100024.03;;;10.27;100.00
50123;BME280;36021;48.670;6.184;2023-02-19T09:13:56;100031.16;;;10.28;100.00
50123;BME280;36021;48.670;6.184;2023-02-19T09:16:21;100034.81;;;10.33;100.00
50123;BME280;36021;48.670;6.184;2023-02-19T09:18:47;100043.63;;;10.35;100.00
50123;BME280;36021;48.670;6.184;2023-02-19T09:21:13;100040.13;;;10.50;100.00
50123;BME280;36021;48.670;6.184;2023-02-19T09:23:38;100030.44;;;10.48;100.00
50123;BME280;36021;48.670;6.184;2023-02-19T09:26:05;100036.22;;;10.46;100.00
50123;BME280;36021;48.670;6.184;2023-02-19T09:28:35;100033.13;;;10.32;100.00
50123;BME280;36021;48.670;6.184;2023-02-19T09:31:05;100033.44;;;10.41;100.00
50123;BME280;36021;48.670;6.184;2023-02-19T09:33:32;100037.91;;;10.52;100.00
50123;BME280;36021;48.670;6.184;2023-02-19T09:36:00;100039.28;;;10.50;100.00
50123;BME280;36021;48.670;6.184;2023-02-19T09:38:26;100041.50;;;10.53;100.00
50123;BME280;36021;48.670;6.184;2023-02-19T09:40:52;100048.97;;;10.62;100.00
50123;BME280;36021;48.670;6.184;2023-02-19T09:43:18;100055.31;;;10.63;100.00
50123;BME280;36021;48.670;6.184;2023-02-19T09:45:45;100054.16;;;10.54;100.00
50123;BME280;36021;48.670;6.184;2023-02-19T09:48:10;100058.03;;;10.58;100.00
50123;BME280;36021;48.670;6.184;2023-02-19T09:50:37;100056.66;;;10.55;100.00
50123;BME280;36021;48.670;6.184;2023-02-19T09:53:04;100060.84;;;10.63;100.00
50123;BME280;36021;48.670;6.184;2023-02-19T09:55:40;100064.66;;;10.57;100.00
50123;BME280;36021;48.670;6.184;2023-02-19T09:58:29;100067.91;;;10.43;100.00
50123;BME280;36021;48.670;6.184;2023-02-19T10:00:54;100077.31;;;10.53;100.00
50123;BME280;36021;48.670;6.184;2023-02-19T10:03:22;100077.88;;;10.50;100.00
50123;BME280;36021;48.670;6.184;2023-02-19T10:05:50;100081.97;;;10.47;100.00
50123;BME280;36021;48.670;6.184;2023-02-19T10:08:17;100091.59;;;10.39;100.00
50123;BME280;36021;48.670;6.184;2023-02-19T10:10:44;100088.25;;;10.37;100.00
50123;BME280;36021;48.670;6.184;2023-02-19T10:13:23;100095.66;;;10.27;100.00
50123;BME280;36021;48.670;6.184;2023-02-19T10:15:51;100096.50;;;10.27;100.00
50123;BME280;36021;48.670;6.184;2023-02-19T10:18:19;100094.59;;;10.33;100.00
50123;BME280;36021;48.670;6.184;2023-02-19T10:20:46;100099.63;;;10.46;100.00
50123;BME280;36021;48.670;6.184;2023-02-19T10:23:12;100098.25;;;10.49;100.00
50123;BME280;36021;48.670;6.184;2023-02-19T10:25:42;100088.91;;;10.55;100.00
50123;BME280;36021;48.670;6.184;2023-02-19T10:28:12;100095.19;;;10.40;100.00
50123;BME280;36021;48.670;6.184;2023-02-19T10:30:39;100106.50;;;10.49;100.00
50123;BME280;36021;48.670;6.184;2023-02-19T10:33:09;100113.13;;;10.48;100.00
50123;BME280;36021;48.670;6.184;2023-02-19T10:35:37;100112.03;;;10.49;100.00
50123;BME280;36021;48.670;6.184;2023-02-19T10:38:14;100111.78;;;10.50;100.00
50123;BME280;36021;48.670;6.184;2023-02-19T10:40:42;100115.38;;;10.61;100.00
50123;BME280;36021;48.670;6.184;2023-02-19T10:43:12;100112.09;;;10.64;100.00
50123;BME280;36021;48.670;6.184;2023-02-19T10:45:46;100112.03;;;10.54;100.00
50123;BME280;36021;48.670;6.184;2023-02-19T10:48:20;100119.81;;;10.67;100.00
50123;BME280;36021;48.670;6.184;2023-02-19T10:50:52;100114.06;;;10.68;100.00
50123;BME280;36021;48.670;6.184;2023-02-19T10:53:34;100121.00;;;10.76;100.00
50123;BME280;36021;48.670;6.184;2023-02-19T10:56:06;100117.66;;;10.74;100.00
50123;BME280;36021;48.670;6.184;2023-02-19T10:58:33;100117.16;;;10.87;100.00
50123;BME280;36021;48.670;6.184;2023-02-19T11:03:44;100123.22;;;10.84;100.00
50123;BME280;36021;48.670;6.184;2023-02-19T11:06:10;100117.66;;;10.74;100.00
50123;BME280;36021;48.670;6.184;2023-02-19T11:08:58;100113.31;;;10.83;100.00
50123;BME280;36021;48.670;6.184;2023-02-19T11:11:23;100115.53;;;10.91;100.00
50123;BME280;36021;48.670;6.184;2023-02-19T11:13:50;100110.88;;;11.02;100.00
50123;BME280;36021;48.670;6.184;2023-02-19T11:16:16;100113.84;;;10.90;100.00
50123;BME280;36021;48.670;6.184;2023-02-19T11:18:42;100108.38;;;11.00;100.00
50123;BME280;36021;48.670;6.184;2023-02-19T11:21:23;100102.81;;;10.90;100.00
50123;BME280;36021;48.670;6.184;2023-02-19T11:23:49;100100.59;;;10.87;100.00
50123;BME280;36021;48.670;6.184;2023-02-19T11:26:19;100098.66;;;10.77;100.00
50123;BME280;36021;48.670;6.184;2023-02-19T11:28:54;100099.53;;;10.83;100.00
50123;BME280;36021;48.670;6.184;2023-02-19T11:31:25;100092.28;;;10.72;100.00
50123;BME280;36021;48.670;6.184;2023-02-19T11:33:58;100089.00;;;10.70;100.00
50123;BME280;36021;48.670;6.184;2023-02-19T11:38:49;100094.25;;;10.76;100.00
50123;BME280;36021;48.670;6.184;2023-02-19T11:41:24;100094.00;;;10.83;100.00
50123;BME280;36021;48.670;6.184;2023-02-19T11:49:43;100090.03;;;10.64;100.00
50123;BME280;36021;48.670;6.184;2023-02-19T11:52:15;100089.50;;;10.67;100.00
50123;BME280;36021;48.670;6.184;2023-02-19T11:54:49;100091.19;;;10.73;100.00
50123;BME280;36021;48.670;6.184;2023-02-19T11:59:50;100090.94;;;10.79;100.00
50123;BME280;36021;48.670;6.184;2023-02-19T12:02:36;100089.63;;;10.92;100.00
50123;BME280;36021;48.670;6.184;2023-02-19T12:08:00;100084.38;;;11.01;100.00
50123;BME280;36021;48.670;6.184;2023-02-19T12:26:06;100092.44;;;11.32;100.00
50123;BME280;36021;48.670;6.184;2023-02-19T12:31:18;100085.31;;;11.31;100.00
50123;BME280;36021;48.670;6.184;2023-02-19T12:36:38;100081.94;;;11.19;100.00
50123;BME280;36021;48.670;6.184;2023-02-19T12:39:17;100085.28;;;11.21;100.00
50123;BME280;36021;48.670;6.184;2023-02-19T12:44:23;100089.72;;;11.37;100.00
50123;BME280;36021;48.670;6.184;2023-02-19T12:46:54;100092.50;;;11.47;100.00
50123;BME280;36021;48.670;6.184;2023-02-19T12:51:48;100092.19;;;11.19;100.00
50123;BME280;36021;48.670;6.184;2023-02-19T12:59:23;100106.75;;;11.04;100.00
50123;BME280;36021;48.670;6.184;2023-02-19T13:04:25;100120.00;;;11.02;100.00
50123;BME280;36021;48.670;6.184;2023-02-19T13:07:03;100121.41;;;11.15;100.00
50123;BME280;36021;48.670;6.184;2023-02-19T13:09:34;100113.69;;;11.12;100.00
50123;BME280;36021;48.670;6.184;2023-02-19T13:12:02;100113.41;;;11.23;100.00
50123;BME280;36021;48.670;6.184;2023-02-19T13:16:59;100118.72;;;11.50;100.00
50123;BME280;36021;48.670;6.184;2023-02-19T13:19:25;100104.63;;;11.41;100.00
50123;BME280;36021;48.670;6.184;2023-02-19T13:21:57;100097.97;;;11.32;100.00
50123;BME280;36021;48.670;6.184;2023-02-19T13:24:46;100090.78;;;11.21;100.00
50123;BME280;36021;48.670;6.184;2023-02-19T13:30:39;100096.31;;;11.21;100.00
50123;BME280;36021;48.670;6.184;2023-02-19T13:37:54;100080.34;;;11.43;100.00
50123;BME280;36021;48.670;6.184;2023-02-19T13:40:31;100078.09;;;11.35;100.00
50123;BME280;36021;48.670;6.184;2023-02-19T13:42:59;100077.31;;;11.45;100.00
50123;BME280;36021;48.670;6.184;2023-02-19T13:45:30;100077.84;;;11.52;100.00
50123;BME280;36021;48.670;6.184;2023-02-19T13:47:58;100069.31;;;11.54;100.00
50123;BME280;36021;48.670;6.184;2023-02-19T13:50:29;100068.75;;;11.52;100.00
50123;BME280;36021;48.670;6.184;2023-02-19T13:52:59;100063.75;;;11.33;100.00
50123;BME280;36021;48.670;6.184;2023-02-19T14:01:18;100068.75;;;11.57;100.00
50123;BME280;36021;48.670;6.184;2023-02-19T14:03:47;100053.56;;;11.49;100.00
50123;BME280;36021;48.670;6.184;2023-02-19T14:06:18;100047.75;;;11.45;100.00
50123;BME280;36021;48.670;6.184;2023-02-19T14:11:18;100058.78;;;11.45;100.00
50123;BME280;36021;48.670;6.184;2023-02-19T14:14:02;100042.22;;;11.45;100.00
50123;BME280;36021;48.670;6.184;2023-02-19T14:18:59;100036.97;;;11.39;100.00
50123;BME280;36021;48.670;6.184;2023-02-19T14:21:34;100046.66;;;11.31;100.00
50123;BME280;36021;48.670;6.184;2023-02-19T14:24:01;100038.94;;;11.33;100.00
50123;BME280;36021;48.670;6.184;2023-02-19T14:26:28;100043.63;;;11.28;100.00
50123;BME280;36021;48.670;6.184;2023-02-19T14:28:57;100051.06;;;11.27;100.00
50123;BME280;36021;48.670;6.184;2023-02-19T14:33:57;100048.28;;;11.22;100.00
50123;BME280;36021;48.670;6.184;2023-02-19T14:36:31;100051.03;;;11.17;100.00
50123;BME280;36021;48.670;6.184;2023-02-19T14:38:59;100047.44;;;11.07;100.00
50123;BME280;36021;48.670;6.184;2023-02-19T14:41:26;100047.72;;;11.05;100.00
50123;BME280;36021;48.670;6.184;2023-02-19T14:43:54;100042.75;;;11.02;100.00